Flight Track Log - Related Links

Times and Time Zones

All times are in EST time to prevent confusion due to time zone crossing. See the CJC3407 flight status page for this flight to view local times or setup timezone preferences in your user account.

Time Position Orientation Groundspeed Altitude Reporting Facility
EST Latitude Longitude Course Direction KTS MPH feet Rate Location/Type
Thu 09:19:49 PM 40.6667 -74.2000 246° West 176 203 1,700  Level New York TRACON
Thu 09:20:19 PM 40.6614 -74.2153 247° West 16,000 2,700 Climbing New York Center
Thu 09:20:49 PM 40.6500 -74.2500 333° Northwest 164 189 4,400 -10,328 Descending New York TRACON
Thu 09:21:20 PM 40.6725 -74.2653 334° Northwest 172 198 5,500 2,656 Climbing New York Center
Thu 09:21:50 PM 40.7000 -74.2833 337° Northwest 151 174 7,100 2,100 Climbing New York TRACON
Thu 09:22:20 PM 40.7153 -74.2919 314° West 164 189 7,600 2,000 Climbing New York Center
Thu 09:22:50 PM 40.7333 -74.3167 320° Northwest 177 204 9,100 2,164 Climbing New York TRACON
Thu 09:23:21 PM 40.7494 -74.3347 324° Northwest 190 219 9,800 900 Climbing New York Center
Thu 09:23:50 PM 40.7833 -74.3667 334° Northwest 216 249 10,000 203 Climbing New York TRACON
Thu 09:24:20 PM 40.8064 -74.3817 325° Northwest 241 277 10,000 1,000 Level New York Center
Thu 09:25:20 PM 40.8631 -74.4342 324° Northwest 276 318 11,500 1,008 Climbing New York Center
Thu 09:26:19 PM 40.9239 -74.4922 321° Northwest 265 305 12,000 252 Climbing New York Center
Thu 09:27:19 PM 40.9842 -74.5561 326° Northwest 265 305 12,000  Level New York Center
Thu 09:28:21 PM 41.0492 -74.6147 323° Northwest 270 311 12,000 -50 Level New York Center
Thu 09:29:20 PM 41.1117 -74.6761 313° West 275 316 11,900 -50 Descending New York Center
Thu 09:30:20 PM 41.1614 -74.7478 299° West 280 322 11,900  Level New York Center
Thu 09:31:20 PM 41.1997 -74.8383 299° West 275 316 11,900 101 Level New York Center
Thu 09:32:19 PM 41.2364 -74.9261 301° West 275 316 12,100 807 Climbing New York Center
Thu 09:33:19 PM 41.2750 -75.0111 300° West 275 316 13,500 1,450 Climbing New York Center
Thu 09:34:19 PM 41.3114 -75.0964 300° West 275 316 15,000 1,240 Climbing New York Center
Thu 09:35:20 PM 41.3500 -75.1844 299° West 275 316 16,000 492 Climbing New York Center
Thu 09:36:21 PM 41.3919 -75.2869 300° West 291 335 16,000  Level New York Center
Thu 09:37:20 PM 41.4378 -75.3922 300° West 310 357 16,000  Level New York Center
Thu 09:38:19 PM 41.4817 -75.4950 298° West 323 372 16,000  Level New York Center
Thu 09:39:19 PM 41.5231 -75.6006 298° West 323 372 16,000  Level New York Center
Thu 09:40:19 PM 41.5628 -75.7003 299° West 317 365 16,000  Level New York Center
Thu 09:41:20 PM 41.6044 -75.8006 299° West 312 359 16,000  Level New York Center
Thu 09:42:20 PM 41.6439 -75.8978 300° West 312 359 16,000  Level New York Center
Thu 09:43:20 PM 41.6875 -75.9983 296° West 312 359 16,000  Level New York Center
Thu 09:44:21 PM 41.7244 -76.1014 300° West 312 359 16,000  Level New York Center
Thu 09:45:21 PM 41.7678 -76.2022 298° West 312 359 16,000 -50 Level New York Center
Thu 09:46:21 PM 41.8072 -76.3000 297° West 312 359 15,900  Descending New York Center
Thu 09:47:21 PM 41.8481 -76.4064 298° West 312 359 16,000 50 Climbing New York Center
Thu 09:48:21 PM 41.8889 -76.5103 299° West 312 359 16,000  Level New York Center
Thu 09:49:19 PM 41.9317 -76.6142 298° West 312 359 16,000  Level New York Center
Thu 09:50:16 PM 41.9744 -76.7228 298° West 324 373 16,000  Level Cleveland Center
Thu 09:51:16 PM 42.0131 -76.8211 299° West 324 373 16,000  Level Cleveland Center
Thu 09:52:16 PM 42.0539 -76.9222 297° West 311 358 16,000  Level Cleveland Center
Thu 09:53:16 PM 42.0903 -77.0181 298° West 301 346 16,000  Level Cleveland Center
Thu 09:54:16 PM 42.1311 -77.1222 297° West 301 346 16,000  Level Cleveland Center
Thu 09:55:16 PM 42.1694 -77.2239 285° West 301 346 16,000  Level Cleveland Center
Thu 09:56:16 PM 42.1842 -77.2961 293° West 301 346 16,000  Level Cleveland Center
Thu 09:57:16 PM 42.2250 -77.4231 296° West 341 392 16,000 -100 Level Cleveland Center
Thu 09:58:16 PM 42.2611 -77.5250 294° West 319 367 15,800 -450 Descending Cleveland Center
Thu 09:59:16 PM 42.2953 -77.6300 293° West 307 353 15,100 -700 Descending Cleveland Center
Thu 10:00:16 PM 42.3269 -77.7297 293° West 297 342 14,400 -650 Descending Cleveland Center
Thu 10:01:16 PM 42.3608 -77.8378 292° West 292 336 13,800 -650 Descending Cleveland Center
Thu 10:02:16 PM 42.3903 -77.9350 294° West 287 330 13,100 -700 Descending Cleveland Center
Thu 10:03:16 PM 42.4214 -78.0292 293° West 287 330 12,400 -650 Descending Cleveland Center
Thu 10:04:16 PM 42.4528 -78.1292 294° West 287 330 11,800 -600 Descending Cleveland Center
Thu 10:05:16 PM 42.4842 -78.2239 334° Northwest 287 330 11,200 -750 Descending Cleveland Center
Thu 10:06:16 PM 42.5517 -78.2692 341° North 256 295 10,300 -900 Descending Cleveland Center
Thu 10:07:16 PM 42.6128 -78.2981 338° Northwest 256 295 9,400 -950 Descending Cleveland Center
Thu 10:08:16 PM 42.6739 -78.3325 338° Northwest 249 287 8,400 -1,000 Descending Cleveland Center
Thu 10:09:16 PM 42.7328 -78.3642 338° Northwest 236 272 7,400 -1,000 Descending Cleveland Center
Thu 10:10:16 PM 42.7897 -78.3961 339° North 231 266 6,400 -1,050 Descending Cleveland Center
Thu 10:11:16 PM 42.8403 -78.4228 339° North 207 238 5,300 -1,100 Descending Cleveland Center

Login

Don't have an account? Register now (free) for customized features, flight alerts, and more!